sensor_id;sensor_type;location;lat;lon;timestamp;pressure;altitude;pressure_sealevel;temperature;humidity
5413;BME280;2729;50.056;8.678;2023-04-04T00:00:42;101472.78;;;2.68;100.00
5413;BME280;2729;50.056;8.678;2023-04-04T00:03:08;101464.88;;;2.62;98.36
5413;BME280;2729;50.056;8.678;2023-04-04T00:05:34;101456.09;;;2.55;100.00
5413;BME280;2729;50.056;8.678;2023-04-04T00:08:01;101461.16;;;2.52;100.00
5413;BME280;2729;50.056;8.678;2023-04-04T00:10:27;101456.13;;;2.57;100.00
5413;BME280;2729;50.056;8.678;2023-04-04T00:12:53;101461.25;;;2.55;100.00
5413;BME280;2729;50.056;8.678;2023-04-04T00:15:19;101460.19;;;2.49;100.00
5413;BME280;2729;50.056;8.678;2023-04-04T00:17:45;101457.34;;;2.38;100.00
5413;BME280;2729;50.056;8.678;2023-04-04T00:20:11;101455.44;;;2.31;100.00
5413;BME280;2729;50.056;8.678;2023-04-04T00:22:37;101453.59;;;2.27;100.00
5413;BME280;2729;50.056;8.678;2023-04-04T00:25:03;101449.50;;;2.34;100.00
5413;BME280;2729;50.056;8.678;2023-04-04T00:27:29;101452.31;;;2.43;100.00
5413;BME280;2729;50.056;8.678;2023-04-04T00:29:55;101446.00;;;2.32;100.00
5413;BME280;2729;50.056;8.678;2023-04-04T00:32:21;101448.41;;;2.25;100.00
5413;BME280;2729;50.056;8.678;2023-04-04T00:34:53;101449.41;;;2.31;100.00
5413;BME280;2729;50.056;8.678;2023-04-04T00:37:19;101442.13;;;2.16;100.00
5413;BME280;2729;50.056;8.678;2023-04-04T00:39:46;101450.63;;;2.13;100.00
5413;BME280;2729;50.056;8.678;2023-04-04T00:42:12;101448.88;;;2.12;100.00
5413;BME280;2729;50.056;8.678;2023-04-04T00:44:38;101448.03;;;2.12;100.00
5413;BME280;2729;50.056;8.678;2023-04-04T00:47:04;101442.81;;;2.10;100.00
5413;BME280;2729;50.056;8.678;2023-04-04T00:49:30;101448.88;;;2.12;100.00
5413;BME280;2729;50.056;8.678;2023-04-04T00:51:56;101435.41;;;2.21;100.00
5413;BME280;2729;50.056;8.678;2023-04-04T00:54:22;101438.41;;;2.06;100.00
5413;BME280;2729;50.056;8.678;2023-04-04T00:56:49;101431.31;;;1.98;100.00
5413;BME280;2729;50.056;8.678;2023-04-04T00:59:24;101434.81;;;2.00;100.00
5413;BME280;2729;50.056;8.678;2023-04-04T01:01:52;101431.91;;;1.89;100.00
5413;BME280;2729;50.056;8.678;2023-04-04T01:04:18;101429.59;;;1.98;100.00
5413;BME280;2729;50.056;8.678;2023-04-04T01:06:44;101430.41;;;1.96;100.00
5413;BME280;2729;50.056;8.678;2023-04-04T01:09:11;101428.78;;;1.99;100.00
5413;BME280;2729;50.056;8.678;2023-04-04T01:11:38;101423.28;;;1.87;100.00
5413;BME280;2729;50.056;8.678;2023-04-04T01:14:06;101424.16;;;1.87;100.00
5413;BME280;2729;50.056;8.678;2023-04-04T01:16:32;101427.03;;;1.98;100.00
5413;BME280;2729;50.056;8.678;2023-04-04T01:19:01;101429.25;;;1.86;100.00
5413;BME280;2729;50.056;8.678;2023-04-04T01:21:28;101427.88;;;1.97;100.00
5413;BME280;2729;50.056;8.678;2023-04-04T01:24:01;101425.28;;;1.97;100.00
5413;BME280;2729;50.056;8.678;2023-04-04T01:26:40;101422.50;;;1.89;100.00
5413;BME280;2729;50.056;8.678;2023-04-04T01:29:06;101422.53;;;1.91;100.00
5413;BME280;2729;50.056;8.678;2023-04-04T01:31:39;101422.53;;;1.91;100.00
5413;BME280;2729;50.056;8.678;2023-04-04T01:34:23;101416.59;;;1.93;100.00
5413;BME280;2729;50.056;8.678;2023-04-04T01:37:02;101417.56;;;1.97;100.00
5413;BME280;2729;50.056;8.678;2023-04-04T01:39:34;101425.06;;;1.89;100.00
5413;BME280;2729;50.056;8.678;2023-04-04T01:42:02;101419.13;;;1.92;100.00
5413;BME280;2729;50.056;8.678;2023-04-04T01:44:28;101420.56;;;1.82;100.00
5413;BME280;2729;50.056;8.678;2023-04-04T01:46:55;101416.59;;;1.93;100.00
5413;BME280;2729;50.056;8.678;2023-04-04T01:49:22;101414.66;;;1.85;100.00
5413;BME280;2729;50.056;8.678;2023-04-04T01:51:50;101419.69;;;1.82;100.00
5413;BME280;2729;50.056;8.678;2023-04-04T01:54:16;101411.47;;;1.93;100.00
5413;BME280;2729;50.056;8.678;2023-04-04T01:56:44;101410.72;;;1.98;100.00
5413;BME280;2729;50.056;8.678;2023-04-04T01:59:11;101417.66;;;2.00;100.00
5413;BME280;2729;50.056;8.678;2023-04-04T02:01:37;101415.72;;;1.93;100.00
5413;BME280;2729;50.056;8.678;2023-04-04T02:04:03;101417.31;;;1.88;100.00
5413;BME280;2729;50.056;8.678;2023-04-04T02:06:29;101413.81;;;1.86;100.00
5413;BME280;2729;50.056;8.678;2023-04-04T02:08:56;101414.81;;;1.91;100.00
5413;BME280;2729;50.056;8.678;2023-04-04T02:11:24;101420.44;;;2.08;94.58
5413;BME280;2729;50.056;8.678;2023-04-04T02:13:50;101415.38;;;2.11;98.15
5413;BME280;2729;50.056;8.678;2023-04-04T02:16:18;101421.75;;;1.93;99.19
5413;BME280;2729;50.056;8.678;2023-04-04T02:18:44;101419.69;;;2.12;100.00
5413;BME280;2729;50.056;8.678;2023-04-04T02:21:10;101408.47;;;2.10;100.00
5413;BME280;2729;50.056;8.678;2023-04-04T02:23:36;101413.25;;;1.96;100.00
5413;BME280;2729;50.056;8.678;2023-04-04T02:26:03;101422.09;;;2.06;100.00
5413;BME280;2729;50.056;8.678;2023-04-04T02:28:29;101417.47;;;1.94;100.00
5413;BME280;2729;50.056;8.678;2023-04-04T02:31:02;101414.41;;;1.77;100.00
5413;BME280;2729;50.056;8.678;2023-04-04T02:33:29;101411.38;;;1.90;100.00
5413;BME280;2729;50.056;8.678;2023-04-04T02:35:58;101418.25;;;1.91;100.00
5413;BME280;2729;50.056;8.678;2023-04-04T02:38:24;101415.66;;;1.90;100.00
5413;BME280;2729;50.056;8.678;2023-04-04T02:40:51;101417.56;;;1.67;100.00
5413;BME280;2729;50.056;8.678;2023-04-04T02:43:17;101413.94;;;1.90;98.77
5413;BME280;2729;50.056;8.678;2023-04-04T02:45:46;101409.63;;;1.89;100.00
5413;BME280;2729;50.056;8.678;2023-04-04T02:48:19;101412.28;;;1.92;95.87
5413;BME280;2729;50.056;8.678;2023-04-04T02:50:48;101407.44;;;2.03;100.00
5413;BME280;2729;50.056;8.678;2023-04-04T02:53:14;101402.47;;;1.79;99.65
5413;BME280;2729;50.056;8.678;2023-04-04T02:55:41;101404.78;;;2.00;100.00
5413;BME280;2729;50.056;8.678;2023-04-04T02:58:08;101398.53;;;1.92;100.00
5413;BME280;2729;50.056;8.678;2023-04-04T03:00:34;101400.78;;;1.80;100.00
5413;BME280;2729;50.056;8.678;2023-04-04T03:03:00;101395.72;;;1.83;100.00
5413;BME280;2729;50.056;8.678;2023-04-04T03:05:30;101396.00;;;1.64;100.00
5413;BME280;2729;50.056;8.678;2023-04-04T03:08:00;101389.94;;;1.61;100.00
5413;BME280;2729;50.056;8.678;2023-04-04T03:10:28;101397.38;;;1.52;100.00
5413;BME280;2729;50.056;8.678;2023-04-04T03:12:57;101388.97;;;1.58;100.00
5413;BME280;2729;50.056;8.678;2023-04-04T03:15:24;101390.03;;;1.65;100.00
5413;BME280;2729;50.056;8.678;2023-04-04T03:17:51;101389.84;;;1.58;100.00
5413;BME280;2729;50.056;8.678;2023-04-04T03:20:19;101386.31;;;1.55;100.00
5413;BME280;2729;50.056;8.678;2023-04-04T03:22:46;101383.63;;;1.50;100.00
5413;BME280;2729;50.056;8.678;2023-04-04T03:25:12;101382.88;;;1.54;100.00
5413;BME280;2729;50.056;8.678;2023-04-04T03:27:38;101381.56;;;1.69;100.00
5413;BME280;2729;50.056;8.678;2023-04-04T03:30:07;101376.34;;;1.66;100.00
5413;BME280;2729;50.056;8.678;2023-04-04T03:32:33;101386.00;;;1.44;100.00
5413;BME280;2729;50.056;8.678;2023-04-04T03:35:00;101369.84;;;1.48;100.00
5413;BME280;2729;50.056;8.678;2023-04-04T03:37:28;101379.25;;;1.48;100.00
5413;BME280;2729;50.056;8.678;2023-04-04T03:39:54;101377.78;;;1.27;100.00
5413;BME280;2729;50.056;8.678;2023-04-04T03:42:20;101376.50;;;1.42;100.00
5413;BME280;2729;50.056;8.678;2023-04-04T03:44:46;101366.13;;;1.39;100.00
5413;BME280;2729;50.056;8.678;2023-04-04T03:47:20;101367.34;;;1.51;100.00
5413;BME280;2729;50.056;8.678;2023-04-04T03:49:46;101362.84;;;1.44;100.00
5413;BME280;2729;50.056;8.678;2023-04-04T03:52:12;101368.03;;;1.46;100.00
5413;BME280;2729;50.056;8.678;2023-04-04T03:54:38;101376.63;;;1.46;100.00
5413;BME280;2729;50.056;8.678;2023-04-04T03:57:06;101371.50;;;1.46;100.00
5413;BME280;2729;50.056;8.678;2023-04-04T03:59:32;101368.28;;;1.53;100.00
5413;BME280;2729;50.056;8.678;2023-04-04T04:01:58;101374.66;;;1.38;100.00
5413;BME280;2729;50.056;8.678;2023-04-04T04:04:24;101371.03;;;1.31;100.00
5413;BME280;2729;50.056;8.678;2023-04-04T04:06:50;101367.22;;;1.47;100.00
5413;BME280;2729;50.056;8.678;2023-04-04T04:09:16;101374.94;;;1.47;100.00
5413;BME280;2729;50.056;8.678;2023-04-04T04:11:42;101371.25;;;1.39;100.00
5413;BME280;2729;50.056;8.678;2023-04-04T04:14:07;101373.78;;;1.37;100.00
5413;BME280;2729;50.056;8.678;2023-04-04T04:16:38;101367.69;;;1.34;100.00
5413;BME280;2729;50.056;8.678;2023-04-04T04:19:04;101364.06;;;1.27;100.00
5413;BME280;2729;50.056;8.678;2023-04-04T04:21:36;101365.03;;;1.31;100.00
5413;BME280;2729;50.056;8.678;2023-04-04T04:24:02;101361.72;;;1.35;100.00
5413;BME280;2729;50.056;8.678;2023-04-04T04:26:28;101375.34;;;1.32;100.00
5413;BME280;2729;50.056;8.678;2023-04-04T04:28:54;101371.59;;;1.21;100.00
5413;BME280;2729;50.056;8.678;2023-04-04T04:31:27;101370.75;;;1.22;100.00
5413;BME280;2729;50.056;8.678;2023-04-04T04:33:53;101367.63;;;1.32;100.00
5413;BME280;2729;50.056;8.678;2023-04-04T04:36:24;101359.13;;;1.35;100.00
5413;BME280;2729;50.056;8.678;2023-04-04T04:39:00;101367.16;;;1.17;100.00
5413;BME280;2729;50.056;8.678;2023-04-04T04:41:30;101366.72;;;1.30;100.00
5413;BME280;2729;50.056;8.678;2023-04-04T04:43:59;101376.00;;;1.25;100.00
5413;BME280;2729;50.056;8.678;2023-04-04T04:46:26;101375.25;;;1.29;100.00
5413;BME280;2729;50.056;8.678;2023-04-04T04:48:52;101370.16;;;1.31;100.00
5413;BME280;2729;50.056;8.678;2023-04-04T04:51:23;101378.88;;;1.07;100.00
5413;BME280;2729;50.056;8.678;2023-04-04T04:53:52;101371.44;;;1.16;100.00
5413;BME280;2729;50.056;8.678;2023-04-04T04:56:19;101366.72;;;1.30;100.00
5413;BME280;2729;50.056;8.678;2023-04-04T04:58:47;101369.94;;;1.23;100.00
5413;BME280;2729;50.056;8.678;2023-04-04T05:01:21;101377.78;;;1.27;100.00
5413;BME280;2729;50.056;8.678;2023-04-04T05:03:47;101375.16;;;1.26;100.00
5413;BME280;2729;50.056;8.678;2023-04-04T05:06:18;101377.81;;;1.29;100.00
5413;BME280;2729;50.056;8.678;2023-04-04T05:08:44;101377.78;;;1.27;100.00
5413;BME280;2729;50.056;8.678;2023-04-04T05:11:27;101377.00;;;1.30;100.00
5413;BME280;2729;50.056;8.678;2023-04-04T05:13:54;101382.06;;;1.27;100.00
5413;BME280;2729;50.056;8.678;2023-04-04T05:16:21;101373.50;;;1.28;100.00
5413;BME280;2729;50.056;8.678;2023-04-04T05:18:49;101385.59;;;1.31;100.00
5413;BME280;2729;50.056;8.678;2023-04-04T05:21:15;101379.03;;;1.40;100.00
5413;BME280;2729;50.056;8.678;2023-04-04T05:23:41;101382.88;;;1.26;100.00
5413;BME280;2729;50.056;8.678;2023-04-04T05:26:10;101383.28;;;1.40;100.00
5413;BME280;2729;50.056;8.678;2023-04-04T05:28:38;101376.59;;;1.16;100.00
5413;BME280;2729;50.056;8.678;2023-04-04T05:31:05;101384.06;;;1.37;100.00
5413;BME280;2729;50.056;8.678;2023-04-04T05:33:34;101385.69;;;1.34;100.00
5413;BME280;2729;50.056;8.678;2023-04-04T05:36:22;101381.97;;;1.52;100.00
5413;BME280;2729;50.056;8.678;2023-04-04T05:38:54;101378.09;;;1.67;100.00
5413;BME280;2729;50.056;8.678;2023-04-04T05:41:23;101385.94;;;1.71;100.00
5413;BME280;2729;50.056;8.678;2023-04-04T05:43:52;101379.97;;;1.72;100.00
5413;BME280;2729;50.056;8.678;2023-04-04T05:46:22;101384.06;;;1.66;100.00
5413;BME280;2729;50.056;8.678;2023-04-04T05:48:50;101376.78;;;1.81;100.00
5413;BME280;2729;50.056;8.678;2023-04-04T05:51:17;101383.38;;;1.71;100.00
5413;BME280;2729;50.056;8.678;2023-04-04T05:53:51;101377.44;;;1.74;100.00
5413;BME280;2729;50.056;8.678;2023-04-04T05:56:21;101386.13;;;1.77;100.00
5413;BME280;2729;50.056;8.678;2023-04-04T05:58:50;101388.00;;;1.83;100.00
5413;BME280;2729;50.056;8.678;2023-04-04T06:01:16;101390.13;;;1.98;100.00
5413;BME280;2729;50.056;8.678;2023-04-04T06:03:43;101384.59;;;1.84;100.00
5413;BME280;2729;50.056;8.678;2023-04-04T06:06:12;101387.38;;;2.23;98.39
5413;BME280;2729;50.056;8.678;2023-04-04T06:08:38;101382.41;;;2.29;100.00
5413;BME280;2729;50.056;8.678;2023-04-04T06:11:04;101384.13;;;2.30;100.00
5413;BME280;2729;50.056;8.678;2023-04-04T06:13:30;101387.94;;;2.44;100.00
5413;BME280;2729;50.056;8.678;2023-04-04T06:16:02;101392.28;;;2.45;100.00
5413;BME280;2729;50.056;8.678;2023-04-04T06:18:27;101395.19;;;2.59;97.38
5413;BME280;2729;50.056;8.678;2023-04-04T06:20:53;101386.91;;;2.69;96.83
5413;BME280;2729;50.056;8.678;2023-04-04T06:23:20;101388.16;;;2.52;87.58
5413;BME280;2729;50.056;8.678;2023-04-04T06:25:49;101396.38;;;2.70;84.21
5413;BME280;2729;50.056;8.678;2023-04-04T06:28:17;101387.28;;;2.84;81.91
5413;BME280;2729;50.056;8.678;2023-04-04T06:30:45;101396.19;;;2.63;80.55
5413;BME280;2729;50.056;8.678;2023-04-04T06:33:14;101392.03;;;3.04;78.86
5413;BME280;2729;50.056;8.678;2023-04-04T06:35:44;101392.66;;;2.94;80.92
5413;BME280;2729;50.056;8.678;2023-04-04T06:38:11;101395.84;;;3.19;79.05
5413;BME280;2729;50.056;8.678;2023-04-04T06:40:37;101397.63;;;3.22;79.14
5413;BME280;2729;50.056;8.678;2023-04-04T06:43:03;101396.22;;;3.36;78.92
5413;BME280;2729;50.056;8.678;2023-04-04T06:45:38;101404.88;;;3.38;75.96
5413;BME280;2729;50.056;8.678;2023-04-04T06:48:04;101404.78;;;3.34;77.93
5413;BME280;2729;50.056;8.678;2023-04-04T06:50:32;101405.59;;;3.33;73.40
5413;BME280;2729;50.056;8.678;2023-04-04T06:53:00;101406.47;;;3.33;74.64
5413;BME280;2729;50.056;8.678;2023-04-04T06:55:28;101400.41;;;3.31;72.87
5413;BME280;2729;50.056;8.678;2023-04-04T06:57:54;101406.59;;;3.38;71.87
5413;BME280;2729;50.056;8.678;2023-04-04T07:00:20;101409.72;;;3.64;71.95
5413;BME280;2729;50.056;8.678;2023-04-04T07:02:46;101403.84;;;3.69;71.15
5413;BME280;2729;50.056;8.678;2023-04-04T07:05:12;101403.09;;;3.75;71.04
5413;BME280;2729;50.056;8.678;2023-04-04T07:07:39;101403.59;;;3.99;70.30
5413;BME280;2729;50.056;8.678;2023-04-04T07:10:05;101403.88;;;4.14;71.81
5413;BME280;2729;50.056;8.678;2023-04-04T07:12:31;101402.03;;;4.07;69.50
5413;BME280;2729;50.056;8.678;2023-04-04T07:14:57;101404.19;;;4.30;70.21
5413;BME280;2729;50.056;8.678;2023-04-04T07:17:23;101406.94;;;4.39;67.25
5413;BME280;2729;50.056;8.678;2023-04-04T07:19:49;101404.88;;;4.68;66.65
5413;BME280;2729;50.056;8.678;2023-04-04T07:22:15;101409.44;;;4.34;65.09
5413;BME280;2729;50.056;8.678;2023-04-04T07:24:41;101409.69;;;4.48;67.35
5413;BME280;2729;50.056;8.678;2023-04-04T07:27:07;101411.78;;;4.22;64.73
5413;BME280;2729;50.056;8.678;2023-04-04T07:29:34;101406.09;;;4.40;66.11
5413;BME280;2729;50.056;8.678;2023-04-04T07:32:00;101402.22;;;4.65;63.89
5413;BME280;2729;50.056;8.678;2023-04-04T07:34:26;101409.00;;;4.58;63.07
5413;BME280;2729;50.056;8.678;2023-04-04T07:36:54;101404.94;;;4.72;62.23
5413;BME280;2729;50.056;8.678;2023-04-04T07:39:20;101402.41;;;4.75;62.44
5413;BME280;2729;50.056;8.678;2023-04-04T07:41:45;101411.81;;;4.70;62.08
5413;BME280;2729;50.056;8.678;2023-04-04T07:44:11;101402.06;;;5.07;61.57
5413;BME280;2729;50.056;8.678;2023-04-04T07:46:37;101404.47;;;4.96;62.43
5413;BME280;2729;50.056;8.678;2023-04-04T07:49:03;101408.69;;;4.90;60.37
5413;BME280;2729;50.056;8.678;2023-04-04T07:51:30;101401.50;;;5.25;60.60
5413;BME280;2729;50.056;8.678;2023-04-04T07:53:56;101403.28;;;5.27;62.28
5413;BME280;2729;50.056;8.678;2023-04-04T07:56:22;101397.47;;;5.43;61.61
5413;BME280;2729;50.056;8.678;2023-04-04T07:58:48;101402.97;;;5.10;60.36
5413;BME280;2729;50.056;8.678;2023-04-04T08:01:14;101400.25;;;5.01;60.30
5413;BME280;2729;50.056;8.678;2023-04-04T08:03:40;101394.41;;;5.14;59.91
5413;BME280;2729;50.056;8.678;2023-04-04T08:06:06;101396.78;;;5.01;61.20
5413;BME280;2729;50.056;8.678;2023-04-04T08:08:32;101390.16;;;5.18;60.26
5413;BME280;2729;50.056;8.678;2023-04-04T08:10:58;101391.88;;;5.17;58.94
5413;BME280;2729;50.056;8.678;2023-04-04T08:13:24;101382.94;;;5.55;58.63
5413;BME280;2729;50.056;8.678;2023-04-04T08:15:50;101385.59;;;5.59;58.00
5413;BME280;2729;50.056;8.678;2023-04-04T08:18:16;101388.72;;;5.35;57.16
5413;BME280;2729;50.056;8.678;2023-04-04T08:20:42;101387.41;;;5.65;57.02
5413;BME280;2729;50.056;8.678;2023-04-04T08:23:08;101385.25;;;5.33;55.55
5413;BME280;2729;50.056;8.678;2023-04-04T08:25:34;101379.41;;;5.48;56.26
5413;BME280;2729;50.056;8.678;2023-04-04T08:28:01;101386.75;;;5.81;58.08
5413;BME280;2729;50.056;8.678;2023-04-04T08:30:29;101383.59;;;6.03;56.92
5413;BME280;2729;50.056;8.678;2023-04-04T08:32:55;101375.69;;;5.93;55.14
5413;BME280;2729;50.056;8.678;2023-04-04T08:35:21;101379.13;;;5.92;55.09
5413;BME280;2729;50.056;8.678;2023-04-04T08:37:47;101380.44;;;5.61;54.98
5413;BME280;2729;50.056;8.678;2023-04-04T08:40:13;101381.63;;;5.87;55.93
5413;BME280;2729;50.056;8.678;2023-04-04T08:42:40;101365.19;;;5.85;53.11
5413;BME280;2729;50.056;8.678;2023-04-04T08:45:10;101377.03;;;6.36;53.68
5413;BME280;2729;50.056;8.678;2023-04-04T08:47:37;101382.19;;;6.33;53.29
5413;BME280;2729;50.056;8.678;2023-04-04T08:50:04;101379.78;;;6.54;52.32
5413;BME280;2729;50.056;8.678;2023-04-04T08:52:32;101378.97;;;6.60;52.78
5413;BME280;2729;50.056;8.678;2023-04-04T08:55:00;101361.75;;;6.66;51.35
5413;BME280;2729;50.056;8.678;2023-04-04T08:57:28;101370.31;;;6.58;51.60
5413;BME280;2729;50.056;8.678;2023-04-04T08:59:54;101367.03;;;6.77;51.31
5413;BME280;2729;50.056;8.678;2023-04-04T09:02:33;101368.81;;;6.83;50.02
5413;BME280;2729;50.056;8.678;2023-04-04T09:05:02;101370.66;;;6.97;50.64
5413;BME280;2729;50.056;8.678;2023-04-04T09:07:28;101373.22;;;6.94;49.85
5413;BME280;2729;50.056;8.678;2023-04-04T09:09:55;101363.56;;;6.76;49.57
5413;BME280;2729;50.056;8.678;2023-04-04T09:12:22;101352.47;;;6.97;48.30
5413;BME280;2729;50.056;8.678;2023-04-04T09:14:50;101359.44;;;7.01;49.40
5413;BME280;2729;50.056;8.678;2023-04-04T09:17:16;101356.13;;;7.25;50.54
5413;BME280;2729;50.056;8.678;2023-04-04T09:19:43;101357.03;;;7.30;48.01
5413;BME280;2729;50.056;8.678;2023-04-04T09:22:09;101356.22;;;7.40;46.98
5413;BME280;2729;50.056;8.678;2023-04-04T09:24:39;101355.25;;;7.22;47.24
5413;BME280;2729;50.056;8.678;2023-04-04T09:27:09;101350.84;;;7.13;45.32
5413;BME280;2729;50.056;8.678;2023-04-04T09:29:40;101346.53;;;7.12;45.45
5413;BME280;2729;50.056;8.678;2023-04-04T09:32:14;101356.06;;;7.13;46.74
5413;BME280;2729;50.056;8.678;2023-04-04T09:34:41;101351.75;;;7.18;46.04
5413;BME280;2729;50.056;8.678;2023-04-04T09:37:08;101355.16;;;7.11;45.90
5413;BME280;2729;50.056;8.678;2023-04-04T09:39:37;101342.41;;;7.49;45.14
5413;BME280;2729;50.056;8.678;2023-04-04T09:42:05;101339.88;;;7.67;44.63
5413;BME280;2729;50.056;8.678;2023-04-04T09:44:32;101352.81;;;7.52;46.38
5413;BME280;2729;50.056;8.678;2023-04-04T09:47:24;101349.38;;;7.56;45.03
5413;BME280;2729;50.056;8.678;2023-04-04T09:49:50;101349.38;;;7.58;44.98
5413;BME280;2729;50.056;8.678;2023-04-04T09:52:20;101347.69;;;7.72;45.89
5413;BME280;2729;50.056;8.678;2023-04-04T09:54:59;101345.13;;;7.78;46.10
5413;BME280;2729;50.056;8.678;2023-04-04T09:57:33;101338.16;;;7.65;45.03
5413;BME280;2729;50.056;8.678;2023-04-04T10:00:01;101338.25;;;7.85;44.62
5413;BME280;2729;50.056;8.678;2023-04-04T10:02:37;101328.75;;;7.97;43.90
5413;BME280;2729;50.056;8.678;2023-04-04T10:05:03;101340.06;;;8.09;45.20
5413;BME280;2729;50.056;8.678;2023-04-04T10:07:30;101340.75;;;7.66;43.39
5413;BME280;2729;50.056;8.678;2023-04-04T10:10:06;101329.66;;;8.02;43.99
5413;BME280;2729;50.056;8.678;2023-04-04T10:12:35;101334.03;;;8.26;44.68
5413;BME280;2729;50.056;8.678;2023-04-04T10:15:02;101329.63;;;7.98;44.32
5413;BME280;2729;50.056;8.678;2023-04-04T10:17:38;101333.22;;;8.38;46.17
5413;BME280;2729;50.056;8.678;2023-04-04T10:20:06;101325.41;;;8.81;45.86
5413;BME280;2729;50.056;8.678;2023-04-04T10:22:37;101322.81;;;8.76;45.28
5413;BME280;2729;50.056;8.678;2023-04-04T10:25:04;101332.34;;;8.63;43.80
5413;BME280;2729;50.056;8.678;2023-04-04T10:27:30;101330.53;;;8.18;42.61
5413;BME280;2729;50.056;8.678;2023-04-04T10:29:58;101317.59;;;8.61;42.61
5413;BME280;2729;50.056;8.678;2023-04-04T10:32:32;101319.34;;;8.82;43.62
5413;BME280;2729;50.056;8.678;2023-04-04T10:35:03;101321.94;;;8.82;43.29
5413;BME280;2729;50.056;8.678;2023-04-04T10:37:34;101319.28;;;9.06;42.16
5413;BME280;2729;50.056;8.678;2023-04-04T10:40:16;101322.81;;;8.72;42.51
5413;BME280;2729;50.056;8.678;2023-04-04T10:42:45;101329.66;;;8.12;42.33
5413;BME280;2729;50.056;8.678;2023-04-04T10:45:15;101328.75;;;7.91;42.43
5413;BME280;2729;50.056;8.678;2023-04-04T10:47:43;101320.13;;;8.17;42.54
5413;BME280;2729;50.056;8.678;2023-04-04T10:50:10;101328.00;;;8.72;43.11
5413;BME280;2729;50.056;8.678;2023-04-04T10:52:39;101326.22;;;8.17;42.55
5413;BME280;2729;50.056;8.678;2023-04-04T10:55:08;101312.38;;;8.35;42.30
5413;BME280;2729;50.056;8.678;2023-04-04T10:57:39;101312.41;;;8.52;43.91
5413;BME280;2729;50.056;8.678;2023-04-04T11:00:10;101313.25;;;8.78;43.35
5413;BME280;2729;50.056;8.678;2023-04-04T11:02:47;101302.00;;;8.56;43.05
5413;BME280;2729;50.056;8.678;2023-04-04T11:05:21;101303.72;;;8.74;43.09
5413;BME280;2729;50.056;8.678;2023-04-04T11:07:55;101311.53;;;8.76;44.19
5413;BME280;2729;50.056;8.678;2023-04-04T11:13:07;101296.75;;;8.90;44.47
5413;BME280;2729;50.056;8.678;2023-04-04T11:15:53;101283.72;;;9.05;42.71
5413;BME280;2729;50.056;8.678;2023-04-04T11:21:17;101279.38;;;9.02;42.28
5413;BME280;2729;50.056;8.678;2023-04-04T11:28:59;101267.72;;;9.90;42.46
5413;BME280;2729;50.056;8.678;2023-04-04T11:31:39;101268.94;;;9.10;40.59
5413;BME280;2729;50.056;8.678;2023-04-04T11:34:12;101266.41;;;8.75;41.15
5413;BME280;2729;50.056;8.678;2023-04-04T11:39:07;101254.19;;;9.08;41.99
5413;BME280;2729;50.056;8.678;2023-04-04T11:44:14;101250.59;;;9.38;41.59
5413;BME280;2729;50.056;8.678;2023-04-04T11:46:41;101251.41;;;9.50;41.31
5413;BME280;2729;50.056;8.678;2023-04-04T11:49:08;101247.03;;;9.58;41.60
5413;BME280;2729;50.056;8.678;2023-04-04T11:51:35;101252.09;;;9.86;41.81
5413;BME280;2729;50.056;8.678;2023-04-04T11:54:02;101245.25;;;9.65;41.84
5413;BME280;2729;50.056;8.678;2023-04-04T11:56:32;101242.56;;;9.79;42.12
5413;BME280;2729;50.056;8.678;2023-04-04T11:59:02;101244.38;;;9.66;42.01
5413;BME280;2729;50.056;8.678;2023-04-04T12:01:28;101238.50;;;9.23;40.35
5413;BME280;2729;50.056;8.678;2023-04-04T12:03:54;101242.84;;;9.25;41.11
5413;BME280;2729;50.056;8.678;2023-04-04T12:06:20;101238.50;;;9.24;41.63
5413;BME280;2729;50.056;8.678;2023-04-04T12:08:47;101235.94;;;9.18;41.15
5413;BME280;2729;50.056;8.678;2023-04-04T12:11:14;101228.97;;;9.22;41.00
5413;BME280;2729;50.056;8.678;2023-04-04T12:13:43;101234.66;;;9.92;42.89
5413;BME280;2729;50.056;8.678;2023-04-04T12:16:13;101221.84;;;9.59;40.70
5413;BME280;2729;50.056;8.678;2023-04-04T12:18:40;101228.69;;;9.74;41.28
5413;BME280;2729;50.056;8.678;2023-04-04T12:21:06;101220.63;;;10.10;42.24
5413;BME280;2729;50.056;8.678;2023-04-04T12:23:35;101220.63;;;10.09;41.21
5413;BME280;2729;50.056;8.678;2023-04-04T12:26:02;101211.97;;;10.05;41.67
5413;BME280;2729;50.056;8.678;2023-04-04T12:28:30;101214.72;;;9.85;41.43
5413;BME280;2729;50.056;8.678;2023-04-04T12:31:00;101210.28;;;9.96;42.08
5413;BME280;2729;50.056;8.678;2023-04-04T12:33:31;101203.34;;;9.97;41.94
5413;BME280;2729;50.056;8.678;2023-04-04T12:36:01;101208.41;;;10.17;41.98
5413;BME280;2729;50.056;8.678;2023-04-04T12:38:30;101206.50;;;10.37;42.46
5413;BME280;2729;50.056;8.678;2023-04-04T12:40:56;101199.38;;;10.59;41.20
5413;BME280;2729;50.056;8.678;2023-04-04T12:43:26;101214.25;;;10.51;41.60
5413;BME280;2729;50.056;8.678;2023-04-04T12:45:53;101203.19;;;10.20;41.69
5413;BME280;2729;50.056;8.678;2023-04-04T12:48:26;101203.28;;;10.05;41.10
5413;BME280;2729;50.056;8.678;2023-04-04T12:50:54;101206.63;;;10.19;40.83
5413;BME280;2729;50.056;8.678;2023-04-04T12:53:25;101201.44;;;10.22;42.99
5413;BME280;2729;50.056;8.678;2023-04-04T12:55:53;101186.84;;;10.91;41.82
5413;BME280;2729;50.056;8.678;2023-04-04T12:58:21;101188.09;;;11.31;42.06
5413;BME280;2729;50.056;8.678;2023-04-04T13:00:50;101179.81;;;10.97;40.97
5413;BME280;2729;50.056;8.678;2023-04-04T13:03:19;101183.72;;;11.33;41.63
5413;BME280;2729;50.056;8.678;2023-04-04T13:05:46;101200.34;;;11.25;42.98
5413;BME280;2729;50.056;8.678;2023-04-04T13:08:12;101191.47;;;11.39;42.49
5413;BME280;2729;50.056;8.678;2023-04-04T13:11:01;101184.44;;;10.73;41.58
5413;BME280;2729;50.056;8.678;2023-04-04T13:13:31;101184.41;;;10.75;41.04
5413;BME280;2729;50.056;8.678;2023-04-04T13:15:57;101183.13;;;10.28;42.53
5413;BME280;2729;50.056;8.678;2023-04-04T13:18:25;101174.81;;;10.78;42.74
5413;BME280;2729;50.056;8.678;2023-04-04T13:20:53;101189.97;;;10.40;42.81
5413;BME280;2729;50.056;8.678;2023-04-04T13:23:19;101177.66;;;10.55;42.54
5413;BME280;2729;50.056;8.678;2023-04-04T13:25:46;101174.84;;;11.43;43.17
5413;BME280;2729;50.056;8.678;2023-04-04T13:28:12;101157.41;;;11.43;40.98
5413;BME280;2729;50.056;8.678;2023-04-04T13:30:39;101170.50;;;11.43;40.59
5413;BME280;2729;50.056;8.678;2023-04-04T13:33:14;101156.91;;;11.17;40.87
5413;BME280;2729;50.056;8.678;2023-04-04T13:35:44;101161.59;;;11.55;39.90